PROFILE

 METAR AND TAF INFORMATION
ADDS - METARS form results

(0827 UTC 19 August 2019)
http://aviationweather.gov/metar/data/
 
LFLL 190800Z 01010KT 340V040 9999 VCSH FEW007 SCT011 BKN018 FEW026TCU 18/16 Q1018 TEMPO SHRA
LFLL 190730Z 36010KT 9999 FEW007 FEW030TCU SCT051 BKN086 18/17 Q1018 TEMPO SHRA
TAF LFLL 190500Z 1906/2012 34008KT 9999 FEW030TCU BKN050 TEMPO 1906/1912 SHRA SCT008 BKN014 SCT020TCU BECMG 1918/1921 CAVOK TEMPO 2000/2012 SHRA BKN060TCU 

 AIRPORT MAP

 RUNWAY INFORMATION
Runway 18L Runway length 8760 ft Runway width 148 ft
Runway elevation 780 ft Runway displaced threshold 0 ft Runway heading 175
Runway 36R Runway length 8760 ft Runway width 148 ft
Runway elevation 821 ft Runway displaced threshold 0 ft Runway heading 355
Runway 18R Runway length 13124 ft Runway width 148 ft
Runway elevation 758 ft Runway displaced threshold 0 ft Runway heading 175
Runway 36L Runway length 13124 ft Runway width 148 ft
Runway elevation 813 ft Runway displaced threshold 0 ft Runway heading 355

 AIRPORT FREQUENCIES
Type A/D Name Lyon appro Frequency 136.075 MHZ
Type ATIS Name ATIS Frequency 126.175 MHZ
Type GND Name GND Frequency 121.825 MHZ
Type INFO Name INFO Frequency 135.2 MHZ
Type PFLT Name PREFLIGHT Frequency 121.7 MHZ
Type TWR Name TWR Frequency 120.45 MHZ

 AIRPORT NEAR NAVIGATION AIDS
Type VOR-DME Name Lyon/Saint Exupery Frequency 114750 KHZ